Edinburg, Ohio
Current Conditions -  °F | °C
As of 11:58 PM on Friday 24 Oct 2014 (Local Time) from KPOV Reporting Station
Overcast Overcast  
Wind Chill: 49°   Ceiling: 4700
Heat Index: 49°   Visibility: 10mi
Dew Point: 43°   Wind: 0mph
Humidity: 82%   Direction: NA
Pressure: 30"   Gusts: NA
Location:  41.0883°N, 81.2°W
Report Text: KPOV 250358Z AUTO 00000KT 10SM OVC047 09/06 A3000 RMK AO2 T00920063
Loading
Personal Weather Stations






























Interactive Weather Map
Tropical Storm Tracking
New forecast layout! Learn more

10-Day Weather Forecast

Advertisements
Track Severe Weather on mobile